Time;durP1;ratioP1;P1;durP2;ratioP2;P2;SDS_P1;SDS_P2;PMS_P1;PMS_P2;Temp;Humidity;BMP_temperature;BMP_pressure;BME280_temperature;BME280_humidity;BME280_pressure;Samples;Min_cycle;Max_cycle;Signal;HPM_P1;HPM_P2
2024/04/14 00:02:11;;;;;;;0.40;0.20;;;;;;;13.67;98.70;100657.94;5415426;26;21011;-49
2024/04/14 00:04:38;;;;;;;0.40;0.20;;;;;;;13.75;98.20;100658.56;5402699;26;20570;-49
2024/04/14 00:07:05;;;;;;;0.40;0.20;;;;;;;13.68;98.29;100650.81;5415461;26;20543;-50
2024/04/14 00:09:31;;;;;;;0.40;0.20;;;;;;;13.73;97.84;100648.88;5415621;26;20479;-51
2024/04/14 00:11:58;;;;;;;0.40;0.20;;;;;;;13.67;99.14;100646.41;5415665;26;20535;-50
2024/04/14 00:14:25;;;;;;;0.40;0.20;;;;;;;13.53;99.47;100642.41;5415361;26;20475;-50
2024/04/14 00:16:52;;;;;;;0.40;0.20;;;;;;;13.54;100.00;100637.94;5409827;26;20483;-50
2024/04/14 00:19:21;;;;;;;0.40;0.20;;;;;;;13.62;100.00;100635.88;5406784;26;20467;-50
2024/04/14 00:21:48;;;;;;;0.40;0.20;;;;;;;13.54;100.00;100640.63;5415226;26;20866;-50
2024/04/14 00:24:14;;;;;;;0.40;0.20;;;;;;;13.65;99.92;100641.13;5415216;26;20556;-49
2024/04/14 00:26:41;;;;;;;0.40;0.20;;;;;;;13.56;99.67;100633.41;5415389;26;20529;-50
2024/04/14 00:29:07;;;;;;;0.40;0.20;;;;;;;13.68;98.94;100635.66;5415367;26;20464;-50
2024/04/14 00:31:34;;;;;;;0.40;0.20;;;;;;;13.67;98.88;100633.91;5415012;26;20528;-50
2024/04/14 00:34:00;;;;;;;0.40;0.20;;;;;;;13.98;99.02;100622.09;5414875;26;20822;-50
2024/04/14 00:36:27;;;;;;;0.40;0.20;;;;;;;13.60;99.43;100633.28;5415243;26;20472;-49
2024/04/14 00:38:53;;;;;;;0.40;0.20;;;;;;;13.68;99.20;100624.09;5415161;26;20486;-49
2024/04/14 00:41:20;;;;;;;0.40;0.20;;;;;;;13.60;99.63;100621.72;5413285;26;20523;-49
2024/04/14 00:43:46;;;;;;;0.40;0.20;;;;;;;13.29;100.00;100622.78;5414371;26;20478;-50
2024/04/14 00:46:13;;;;;;;0.40;0.20;;;;;;;13.39;100.00;100617.13;5416596;26;20478;-50
2024/04/14 00:48:41;;;;;;;0.40;0.20;;;;;;;13.16;100.00;100623.22;5418796;26;20535;-50
2024/04/14 00:51:08;;;;;;;0.40;0.20;;;;;;;13.23;100.00;100614.97;5418443;26;20522;-50
2024/04/14 00:53:35;;;;;;;0.40;0.20;;;;;;;13.50;100.00;100617.63;5418362;26;20594;-50
2024/04/14 00:56:02;;;;;;;0.40;0.20;;;;;;;13.29;100.00;100620.13;5418368;26;20475;-50
2024/04/14 00:58:28;;;;;;;0.40;0.20;;;;;;;13.35;100.00;100616.34;5418190;26;20470;-50
2024/04/14 01:00:55;;;;;;;0.40;0.20;;;;;;;13.42;100.00;100617.00;5417896;26;20467;-50
2024/04/14 01:03:22;;;;;;;0.40;0.20;;;;;;;13.37;100.00;100622.50;5406067;26;20634;-51
2024/04/14 01:05:49;;;;;;;0.40;0.20;;;;;;;13.38;100.00;100613.56;5417887;26;20531;-49
2024/04/14 01:08:15;;;;;;;0.40;0.20;;;;;;;13.16;100.00;100615.22;5418259;26;20853;-49
2024/04/14 01:10:42;;;;;;;0.40;0.20;;;;;;;13.14;100.00;100609.03;5418372;26;20478;-50
2024/04/14 01:13:09;;;;;;;0.40;0.20;;;;;;;13.22;100.00;100618.56;5417648;26;21019;-50
2024/04/14 01:15:35;;;;;;;0.40;0.20;;;;;;;13.08;100.00;100617.25;5418332;26;21030;-50
2024/04/14 01:18:02;;;;;;;0.40;0.20;;;;;;;13.10;100.00;100623.41;5417925;26;20479;-49
2024/04/14 01:20:29;;;;;;;0.40;0.20;;;;;;;13.18;100.00;100613.38;5418104;26;20471;-50
2024/04/14 01:22:56;;;;;;;0.30;0.20;;;;;;;13.03;100.00;100609.44;5417768;26;20543;-49
2024/04/14 01:25:23;;;;;;;0.40;0.20;;;;;;;13.00;100.00;100609.50;5418377;26;20527;-49
2024/04/14 01:27:49;;;;;;;0.40;0.20;;;;;;;12.94;100.00;100612.38;5418047;26;20504;-49
2024/04/14 01:30:16;;;;;;;0.40;0.20;;;;;;;12.95;100.00;100620.34;5417900;26;20894;-50
2024/04/14 01:32:42;;;;;;;0.40;0.20;;;;;;;12.91;100.00;100617.84;5417683;26;20527;-49
2024/04/14 01:35:09;;;;;;;0.40;0.20;;;;;;;13.03;100.00;100623.63;5417923;26;20589;-49
2024/04/14 01:37:36;;;;;;;0.40;0.20;;;;;;;12.91;100.00;100615.16;5417682;26;20833;-50
2024/04/14 01:40:02;;;;;;;0.30;0.20;;;;;;;13.05;100.00;100611.13;5417980;26;20523;-50
2024/04/14 01:42:33;;;;;;;0.40;0.20;;;;;;;12.98;100.00;100617.56;5417687;26;20526;-50
2024/04/14 01:45:00;;;;;;;0.40;0.20;;;;;;;12.88;100.00;100616.13;5415415;26;20482;-49
2024/04/14 01:47:27;;;;;;;0.40;0.20;;;;;;;12.93;100.00;100615.97;5417573;26;20732;-49
2024/04/14 01:49:53;;;;;;;0.40;0.20;;;;;;;13.01;100.00;100619.25;5417434;26;20531;-49
2024/04/14 01:52:20;;;;;;;0.40;0.20;;;;;;;13.19;100.00;100613.34;5417552;26;20526;-50
2024/04/14 01:54:49;;;;;;;0.30;0.20;;;;;;;13.02;100.00;100619.22;5417562;26;20487;-49
2024/04/14 01:57:16;;;;;;;0.30;0.20;;;;;;;12.88;100.00;100621.44;5415939;26;20487;-50
2024/04/14 01:59:43;;;;;;;0.40;0.20;;;;;;;12.93;100.00;100624.84;5417528;26;20539;-49
2024/04/14 02:02:09;;;;;;;0.33;0.20;;;;;;;12.82;100.00;100628.78;5438119;21;20505;-46
2024/04/14 02:04:36;;;;;;;0.30;0.20;;;;;;;12.94;100.00;100629.28;5422182;26;20528;-47
2024/04/14 02:07:03;;;;;;;0.30;0.20;;;;;;;12.79;100.00;100631.56;5423641;26;20857;-47
2024/04/14 02:09:30;;;;;;;0.37;0.20;;;;;;;12.91;100.00;100626.72;5433596;26;20562;-47
2024/04/14 02:11:56;;;;;;;0.40;0.20;;;;;;;12.90;100.00;100632.09;5447712;26;20579;-46
2024/04/14 02:14:23;;;;;;;0.30;0.20;;;;;;;12.80;100.00;100626.19;5443532;26;20595;-46
2024/04/14 02:16:49;;;;;;;0.40;0.20;;;;;;;12.87;100.00;100635.72;5425012;26;20525;-46
2024/04/14 02:19:16;;;;;;;0.40;0.20;;;;;;;12.65;100.00;100626.69;5431213;26;20470;-46
2024/04/14 02:21:43;;;;;;;0.30;0.20;;;;;;;12.75;100.00;100628.13;5448009;26;20526;-46
2024/04/14 02:24:12;;;;;;;0.30;0.20;;;;;;;12.88;100.00;100640.13;5423904;26;20524;-46
2024/04/14 02:26:39;;;;;;;0.33;0.20;;;;;;;12.96;100.00;100637.22;5428574;26;20821;-47
2024/04/14 02:29:07;;;;;;;0.30;0.20;;;;;;;13.07;100.00;100637.75;5434098;26;20518;-47
2024/04/14 02:31:33;;;;;;;0.30;0.20;;;;;;;12.90;100.00;100640.97;5444210;26;20477;-47
2024/04/14 02:34:00;;;;;;;0.30;0.20;;;;;;;12.88;100.00;100633.91;5433040;26;20862;-47
2024/04/14 02:36:28;;;;;;;0.33;0.20;;;;;;;12.92;100.00;100640.91;5438098;26;20555;-47
2024/04/14 02:38:55;;;;;;;0.40;0.20;;;;;;;12.85;100.00;100634.91;5426640;26;20538;-47
2024/04/14 02:41:22;;;;;;;0.30;0.20;;;;;;;12.83;100.00;100633.22;5449293;26;20530;-47
2024/04/14 02:43:48;;;;;;;0.30;0.20;;;;;;;12.70;100.00;100633.59;5433157;26;21126;-47
2024/04/14 02:46:15;;;;;;;0.30;0.20;;;;;;;12.84;100.00;100633.16;5426599;26;20526;-46
2024/04/14 02:48:48;;;;;;;0.30;0.20;;;;;;;13.02;100.00;100631.69;5439902;26;20470;-47
2024/04/14 02:51:15;;;;;;;0.33;0.20;;;;;;;12.86;100.00;100635.75;5434870;26;20481;-46
2024/04/14 02:53:41;;;;;;;0.30;0.20;;;;;;;12.96;100.00;100634.56;5429795;26;20527;-47
2024/04/14 02:56:08;;;;;;;0.30;0.20;;;;;;;12.81;100.00;100635.94;5410396;26;20530;-47
2024/04/14 02:58:34;;;;;;;0.30;0.20;;;;;;;12.76;100.00;100635.22;5429194;26;20475;-47
2024/04/14 03:01:02;;;;;;;0.50;0.50;;;;;;;12.78;100.00;100638.69;5434671;26;20524;-46
2024/04/14 03:03:29;;;;;;;0.30;0.20;;;;;;;12.82;100.00;100642.13;5407376;26;20872;-48
2024/04/14 03:06:03;;;;;;;0.30;0.20;;;;;;;12.73;100.00;100635.28;5419124;26;20475;-46
2024/04/14 03:08:30;;;;;;;0.30;0.20;;;;;;;12.91;100.00;100636.50;5442440;26;21017;-47
2024/04/14 03:10:58;;;;;;;0.30;0.20;;;;;;;12.85;100.00;100644.69;5432668;26;20477;-47
2024/04/14 03:13:25;;;;;;;0.30;0.20;;;;;;;13.04;100.00;100638.72;5452505;26;20588;-46
2024/04/14 03:15:52;;;;;;;0.30;0.20;;;;;;;12.94;100.00;100645.28;5423062;26;20471;-47
2024/04/14 03:18:18;;;;;;;0.40;0.20;;;;;;;12.94;100.00;100649.75;5443657;26;20465;-46
2024/04/14 03:20:59;;;;;;;0.40;0.20;;;;;;;12.88;100.00;100656.13;5432492;26;20524;-46
2024/04/14 03:23:26;;;;;;;0.30;0.20;;;;;;;12.95;100.00;100652.34;5424834;26;21074;-47
2024/04/14 03:25:54;;;;;;;0.30;0.20;;;;;;;12.92;100.00;100654.25;5426646;26;20474;-46
2024/04/14 03:28:22;;;;;;;0.30;0.20;;;;;;;12.84;100.00;100651.81;5440658;26;20514;-48
2024/04/14 03:30:48;;;;;;;0.30;0.20;;;;;;;12.89;100.00;100652.56;5444359;26;20878;-48
2024/04/14 03:33:15;;;;;;;0.30;0.20;;;;;;;12.93;100.00;100656.88;5452377;26;20580;-46
2024/04/14 03:35:42;;;;;;;0.30;0.20;;;;;;;12.95;100.00;100643.47;5441278;26;20521;-46
2024/04/14 03:38:08;;;;;;;0.30;0.20;;;;;;;13.00;100.00;100655.75;5433143;26;20514;-46
2024/04/14 03:40:35;;;;;;;0.30;0.20;;;;;;;12.93;100.00;100659.53;5421835;26;20802;-47
2024/04/14 03:43:02;;;;;;;0.30;0.20;;;;;;;12.91;100.00;100664.06;5435850;26;21005;-47
2024/04/14 03:45:28;;;;;;;0.30;0.20;;;;;;;12.77;100.00;100654.75;5423192;26;20523;-47
2024/04/14 03:47:55;;;;;;;0.30;0.20;;;;;;;12.87;100.00;100651.72;5443693;26;20813;-47
2024/04/14 03:50:21;;;;;;;0.30;0.20;;;;;;;12.73;100.00;100654.81;5427284;26;20478;-47
2024/04/14 03:52:48;;;;;;;0.30;0.20;;;;;;;12.94;100.00;100645.28;5431277;26;20825;-47
2024/04/14 03:55:15;;;;;;;0.30;0.20;;;;;;;12.78;100.00;100645.84;5429784;26;20470;-46
2024/04/14 03:57:41;;;;;;;0.30;0.20;;;;;;;12.78;100.00;100646.69;5438976;26;20466;-47
2024/04/14 04:00:08;;;;;;;0.30;0.20;;;;;;;12.80;100.00;100649.31;5430859;26;20890;-46
2024/04/14 04:02:35;;;;;;;0.30;0.20;;;;;;;12.93;100.00;100656.00;5436333;26;20547;-47
2024/04/14 04:05:02;;;;;;;0.30;0.20;;;;;;;12.82;100.00;100651.00;5417955;26;20471;-48
2024/04/14 04:07:29;;;;;;;0.30;0.20;;;;;;;12.82;100.00;100645.66;5451152;26;20525;-47
2024/04/14 04:09:55;;;;;;;0.30;0.20;;;;;;;12.85;100.00;100655.38;5433263;26;20519;-47
2024/04/14 04:12:22;;;;;;;0.30;0.20;;;;;;;12.62;100.00;100648.13;5415766;26;20479;-46
2024/04/14 04:14:51;;;;;;;0.30;0.20;;;;;;;12.71;100.00;100643.34;5419311;26;20471;-47
2024/04/14 04:17:18;;;;;;;0.30;0.20;;;;;;;12.57;100.00;100648.22;5420744;26;20522;-47
2024/04/14 04:19:45;;;;;;;0.30;0.20;;;;;;;12.52;100.00;100652.84;5438471;26;20466;-48
2024/04/14 04:22:11;;;;;;;0.30;0.20;;;;;;;12.48;100.00;100656.53;5445085;26;20470;-47
2024/04/14 04:24:38;;;;;;;0.30;0.20;;;;;;;12.39;100.00;100656.81;5425104;26;20467;-48
2024/04/14 04:27:05;;;;;;;0.30;0.20;;;;;;;12.37;100.00;100658.66;5433480;26;20544;-46
2024/04/14 04:29:31;;;;;;;0.30;0.20;;;;;;;12.41;100.00;100661.16;5431432;26;20475;-47
2024/04/14 04:31:58;;;;;;;0.30;0.20;;;;;;;12.46;100.00;100658.34;5442136;26;20473;-46
2024/04/14 04:34:25;;;;;;;0.30;0.20;;;;;;;12.51;100.00;100659.09;5431980;26;20531;-48
2024/04/14 04:36:52;;;;;;;0.30;0.20;;;;;;;12.50;100.00;100669.81;5455402;26;20469;-48
2024/04/14 04:39:18;;;;;;;0.30;0.20;;;;;;;12.49;100.00;100668.94;5454817;26;20546;-47
2024/04/14 04:41:45;;;;;;;0.30;0.20;;;;;;;12.56;100.00;100672.28;5455188;26;20473;-47
2024/04/14 04:44:12;;;;;;;0.30;0.20;;;;;;;12.59;100.00;100669.53;5451203;26;20529;-46
2024/04/14 04:46:38;;;;;;;0.30;0.20;;;;;;;12.48;100.00;100664.53;5434428;26;20473;-47
2024/04/14 04:49:05;;;;;;;0.30;0.20;;;;;;;12.52;100.00;100668.84;5435873;26;20589;-46
2024/04/14 04:51:31;;;;;;;0.30;0.20;;;;;;;12.51;100.00;100668.91;5446510;26;20490;-47
2024/04/14 04:53:58;;;;;;;0.30;0.20;;;;;;;12.44;100.00;100669.06;5438892;26;21042;-46
2024/04/14 04:56:25;;;;;;;0.30;0.20;;;;;;;12.60;100.00;100668.59;5454673;26;21009;-47
2024/04/14 04:58:52;;;;;;;0.30;0.20;;;;;;;12.46;100.00;100672.56;5446245;26;20508;-47
2024/04/14 05:01:18;;;;;;;0.30;0.20;;;;;;;12.58;100.00;100681.09;5454568;26;20592;-47
2024/04/14 05:03:45;;;;;;;0.30;0.20;;;;;;;12.68;100.00;100680.78;5429693;26;20483;-47
2024/04/14 05:06:12;;;;;;;0.30;0.20;;;;;;;12.59;100.00;100682.84;5455127;26;21021;-47
2024/04/14 05:08:38;;;;;;;0.30;0.30;;;;;;;12.58;100.00;100689.97;5454606;26;20465;-47
2024/04/14 05:11:05;;;;;;;0.30;0.20;;;;;;;12.62;100.00;100693.44;5454958;26;20477;-46
2024/04/14 05:13:31;;;;;;;0.30;0.20;;;;;;;12.72;100.00;100694.88;5454712;26;20518;-47
2024/04/14 05:15:58;;;;;;;0.30;0.20;;;;;;;12.81;100.00;100699.94;5434881;26;20471;-46
2024/04/14 05:18:25;;;;;;;0.30;0.20;;;;;;;12.91;100.00;100704.09;5424217;26;20529;-47
2024/04/14 05:20:51;;;;;;;0.30;0.20;;;;;;;13.01;100.00;100704.66;5436859;26;20489;-46
2024/04/14 05:23:18;;;;;;;0.30;0.20;;;;;;;13.11;100.00;100714.13;5454392;26;20478;-46
2024/04/14 05:25:48;;;;;;;0.30;0.20;;;;;;;13.17;100.00;100703.25;5437689;26;20816;-47
2024/04/14 05:28:15;;;;;;;0.30;0.20;;;;;;;13.46;100.00;100710.34;5449122;26;20643;-47
2024/04/14 05:30:41;;;;;;;0.30;0.20;;;;;;;13.57;100.00;100715.31;5454092;26;20484;-46
2024/04/14 05:33:08;;;;;;;0.30;0.20;;;;;;;13.67;100.00;100714.06;5443027;26;20479;-46
2024/04/14 05:35:34;;;;;;;0.30;0.20;;;;;;;13.83;100.00;100714.38;5403762;26;20475;-46
2024/04/14 05:38:01;;;;;;;0.30;0.20;;;;;;;14.05;100.00;100712.72;5448710;26;20469;-46
2024/04/14 05:40:28;;;;;;;0.30;0.20;;;;;;;14.20;100.00;100706.81;5444751;26;21022;-46
2024/04/14 05:42:55;;;;;;;0.30;0.20;;;;;;;14.26;100.00;100711.06;5452374;26;20465;-46
2024/04/14 05:45:23;;;;;;;0.40;0.20;;;;;;;14.39;100.00;100714.13;5432522;26;20475;-46
2024/04/14 05:47:49;;;;;;;0.30;0.20;;;;;;;14.56;100.00;100719.78;5434573;26;20477;-47
2024/04/14 05:50:16;;;;;;;0.40;0.20;;;;;;;14.65;100.00;100715.84;5453519;26;20469;-47
2024/04/14 05:52:43;;;;;;;0.30;0.20;;;;;;;14.79;100.00;100713.50;5435940;26;21005;-46
2024/04/14 05:55:09;;;;;;;0.40;0.20;;;;;;;14.95;100.00;100719.16;5453978;26;20864;-46
2024/04/14 05:57:36;;;;;;;0.30;0.20;;;;;;;15.15;100.00;100718.34;5453843;26;20466;-46
2024/04/14 06:00:03;;;;;;;0.40;0.20;;;;;;;15.10;100.00;100716.75;5453871;26;20634;-46
2024/04/14 06:02:30;;;;;;;0.40;0.20;;;;;;;15.19;100.00;100712.78;5442457;26;20487;-46
2024/04/14 06:04:56;;;;;;;0.30;0.20;;;;;;;15.33;100.00;100718.47;5410274;26;20484;-47
2024/04/14 06:07:23;;;;;;;0.40;0.20;;;;;;;15.36;100.00;100722.84;5415320;26;20580;-46
2024/04/14 06:09:49;;;;;;;0.40;0.20;;;;;;;15.53;100.00;100730.16;5417914;26;20536;-46
2024/04/14 06:12:16;;;;;;;0.40;0.20;;;;;;;15.67;100.00;100731.38;5447058;26;20482;-46
2024/04/14 06:14:43;;;;;;;0.40;0.20;;;;;;;15.76;100.00;100724.75;5416979;26;20471;-47
2024/04/14 06:17:09;;;;;;;0.40;0.20;;;;;;;15.99;100.00;100731.78;5414040;26;20479;-46
2024/04/14 06:19:36;;;;;;;0.50;0.50;;;;;;;16.07;100.00;100737.69;5418993;26;20516;-47
2024/04/14 06:22:03;;;;;;;0.40;0.20;;;;;;;16.20;100.00;100741.56;5453616;26;20481;-47
2024/04/14 06:24:29;;;;;;;0.40;0.20;;;;;;;16.38;100.00;100736.31;5419528;26;20592;-47
2024/04/14 06:26:56;;;;;;;0.40;0.20;;;;;;;16.53;98.48;100743.66;5422372;26;20602;-47
2024/04/14 06:29:22;;;;;;;0.40;0.20;;;;;;;16.71;97.54;100742.81;5427729;26;20479;-46
2024/04/14 06:31:49;;;;;;;0.40;0.20;;;;;;;16.87;96.25;100740.31;5450033;26;20530;-47
2024/04/14 06:34:15;;;;;;;0.40;0.20;;;;;;;17.06;95.98;100743.84;5419372;26;20495;-46
2024/04/14 06:36:42;;;;;;;0.40;0.20;;;;;;;17.09;94.01;100732.97;5423268;26;20517;-46
2024/04/14 06:39:09;;;;;;;0.40;0.20;;;;;;;17.25;93.12;100743.81;5442936;26;20466;-46
2024/04/14 06:41:35;;;;;;;0.40;0.20;;;;;;;17.70;89.63;100738.03;5425810;26;20809;-47
2024/04/14 06:44:02;;;;;;;0.40;0.20;;;;;;;17.55;89.71;100737.91;5427370;26;20475;-47
2024/04/14 06:46:28;;;;;;;0.40;0.20;;;;;;;17.96;87.71;100736.69;5430907;26;20478;-47
2024/04/14 06:48:55;;;;;;;0.40;0.20;;;;;;;17.67;88.29;100742.63;5432707;26;21019;-47
2024/04/14 06:51:21;;;;;;;0.40;0.20;;;;;;;17.54;87.47;100741.50;5432964;26;20597;-47
2024/04/14 06:53:48;;;;;;;0.40;0.20;;;;;;;17.96;87.03;100743.91;5442628;26;20518;-47
2024/04/14 06:56:15;;;;;;;0.40;0.20;;;;;;;18.03;85.63;100746.16;5427553;26;20473;-47
2024/04/14 06:58:41;;;;;;;0.40;0.20;;;;;;;18.07;85.02;100738.81;5434618;26;20479;-46
2024/04/14 07:01:08;;;;;;;0.40;0.20;;;;;;;18.00;84.77;100740.97;5427819;26;20474;-47
2024/04/14 07:03:34;;;;;;;0.40;0.20;;;;;;;18.11;84.35;100745.78;5418781;26;20483;-47
2024/04/14 07:06:02;;;;;;;0.40;0.20;;;;;;;18.24;83.50;100741.50;5450467;26;20575;-47
2024/04/14 07:08:29;;;;;;;0.40;0.20;;;;;;;18.26;82.83;100736.91;5432716;26;20479;-46
2024/04/14 07:10:56;;;;;;;0.40;0.20;;;;;;;18.16;82.68;100738.31;5438773;26;20482;-46
2024/04/14 07:13:22;;;;;;;0.40;0.20;;;;;;;18.31;81.43;100742.91;5452454;26;21010;-47
2024/04/14 07:15:49;;;;;;;0.40;0.20;;;;;;;18.32;81.48;100728.47;5435286;26;20471;-47
2024/04/14 07:18:16;;;;;;;0.40;0.20;;;;;;;18.61;79.13;100737.66;5439508;26;20585;-47
2024/04/14 07:20:43;;;;;;;0.40;0.20;;;;;;;18.61;79.44;100734.97;5438274;26;20475;-46
2024/04/14 07:23:11;;;;;;;0.40;0.20;;;;;;;18.77;77.54;100731.47;5444920;26;20521;-47
2024/04/14 07:25:37;;;;;;;0.40;0.20;;;;;;;18.74;79.21;100734.34;5431715;26;20773;-49
2024/04/14 07:28:04;;;;;;;0.40;0.20;;;;;;;18.89;79.06;100733.47;5434206;26;20471;-47
2024/04/14 07:30:31;;;;;;;0.40;0.20;;;;;;;18.97;75.54;100742.03;5432578;26;20528;-47
2024/04/14 07:32:57;;;;;;;0.40;0.20;;;;;;;19.13;75.02;100742.03;5428828;26;20906;-48
2024/04/14 07:35:24;;;;;;;0.40;0.27;;;;;;;19.19;74.69;100736.31;5452470;26;20462;-47
2024/04/14 07:37:51;;;;;;;0.40;0.20;;;;;;;19.14;73.53;100743.75;5448049;26;20466;-47
2024/04/14 07:40:17;;;;;;;0.50;0.40;;;;;;;19.47;72.46;100741.84;5445129;26;20471;-52
2024/04/14 07:42:44;;;;;;;0.40;0.20;;;;;;;19.48;71.91;100740.88;5438218;26;20991;-47
2024/04/14 07:45:10;;;;;;;0.40;0.20;;;;;;;19.65;71.50;100736.34;5416383;26;20523;-47
2024/04/14 07:47:37;;;;;;;0.40;0.20;;;;;;;19.76;70.91;100750.94;5446341;26;20469;-48
2024/04/14 07:50:06;;;;;;;0.40;0.20;;;;;;;19.58;70.11;100749.31;5434403;26;20518;-47
2024/04/14 07:52:32;;;;;;;0.40;0.20;;;;;;;19.71;70.24;100755.72;5429289;26;20506;-47
2024/04/14 07:54:59;;;;;;;0.40;0.20;;;;;;;19.75;67.95;100754.59;5438318;26;20479;-48
2024/04/14 07:57:27;;;;;;;0.40;0.20;;;;;;;19.86;68.22;100753.06;5447484;26;21038;-46
2024/04/14 07:59:54;;;;;;;0.40;0.20;;;;;;;19.97;68.84;100756.88;5435009;26;20525;-47
2024/04/14 08:02:20;;;;;;;0.40;0.20;;;;;;;20.03;67.65;100752.97;5439996;26;20483;-50
2024/04/14 08:04:47;;;;;;;0.40;0.20;;;;;;;20.24;68.36;100762.44;5420801;26;20613;-49
2024/04/14 08:07:13;;;;;;;0.40;0.20;;;;;;;20.21;66.44;100764.47;5448129;26;20446;-49
2024/04/14 08:09:40;;;;;;;0.40;0.20;;;;;;;20.41;65.29;100762.28;5451787;26;20615;-50
2024/04/14 08:12:07;;;;;;;0.40;0.30;;;;;;;20.20;63.34;100763.59;5450435;26;20564;-49
2024/04/14 08:14:37;;;;;;;0.40;0.20;;;;;;;20.50;64.83;100747.34;5415995;26;21054;-50
2024/04/14 08:17:04;;;;;;;0.40;0.20;;;;;;;20.38;65.22;100753.47;5434662;26;20442;-50
2024/04/14 08:19:31;;;;;;;0.40;0.20;;;;;;;20.25;65.64;100749.81;5442657;26;20527;-50
2024/04/14 08:21:58;;;;;;;0.40;0.20;;;;;;;20.15;64.50;100752.22;5445427;26;20787;-50
2024/04/14 08:24:25;;;;;;;0.40;0.20;;;;;;;20.59;64.03;100749.50;5446151;26;20503;-50
2024/04/14 08:26:51;;;;;;;0.40;0.20;;;;;;;20.57;63.61;100743.31;5430375;26;20470;-50
2024/04/14 08:29:18;;;;;;;0.40;0.20;;;;;;;20.49;57.88;100745.63;5438114;26;20471;-50
2024/04/14 08:31:44;;;;;;;0.40;0.20;;;;;;;20.91;57.73;100749.28;5443079;26;20458;-50
2024/04/14 08:34:11;;;;;;;0.40;0.20;;;;;;;21.21;56.89;100743.72;5429621;26;20627;-50
2024/04/14 08:36:38;;;;;;;0.40;0.20;;;;;;;21.18;56.55;100742.06;5415676;26;20556;-50
2024/04/14 08:39:04;;;;;;;0.40;0.20;;;;;;;21.19;54.37;100748.34;5446598;26;20470;-49
2024/04/14 08:41:34;;;;;;;0.40;0.20;;;;;;;21.40;55.05;100740.72;5428696;26;20470;-50
2024/04/14 08:44:00;;;;;;;0.40;0.20;;;;;;;21.28;55.59;100745.09;5450138;26;20449;-50
2024/04/14 08:46:28;;;;;;;0.40;0.20;;;;;;;21.43;54.92;100751.31;5419911;26;20448;-50
2024/04/14 08:48:55;;;;;;;0.40;0.20;;;;;;;21.35;55.17;100750.94;5424685;26;20503;-50
2024/04/14 08:51:24;;;;;;;0.40;0.20;;;;;;;21.65;53.56;100748.03;5429115;26;20451;-50
2024/04/14 08:53:53;;;;;;;0.40;0.20;;;;;;;21.84;53.91;100753.94;5440309;26;20833;-50
2024/04/14 08:56:23;;;;;;;0.40;0.20;;;;;;;21.57;53.09;100748.56;5444519;26;20817;-54
2024/04/14 08:59:02;;;;;;;0.40;0.20;;;;;;;21.54;54.65;100748.78;5442431;26;20446;-50
2024/04/14 09:01:30;;;;;;;0.93;0.93;;;;;;;21.79;54.10;100746.16;5448529;26;20450;-50
2024/04/14 09:03:56;;;;;;;0.40;0.20;;;;;;;21.83;52.78;100749.50;5436527;26;20509;-50
2024/04/14 09:06:23;;;;;;;0.40;0.20;;;;;;;21.98;52.01;100744.88;5435322;26;20539;-50
2024/04/14 09:08:50;;;;;;;0.40;0.20;;;;;;;22.12;52.13;100748.41;5431318;26;21081;-50
2024/04/14 09:11:16;;;;;;;0.40;0.20;;;;;;;22.07;51.68;100747.00;5427029;26;20590;-50
2024/04/14 09:13:45;;;;;;;0.40;0.20;;;;;;;22.09;51.85;100750.47;5438696;26;20449;-49
2024/04/14 09:16:12;;;;;;;0.40;0.20;;;;;;;22.25;50.92;100743.00;5441732;26;20467;-50
2024/04/14 09:18:39;;;;;;;0.40;0.20;;;;;;;22.25;51.27;100742.16;5451315;26;20538;-49
2024/04/14 09:21:05;;;;;;;0.40;0.20;;;;;;;22.04;51.91;100742.63;5454048;26;20535;-49
2024/04/14 09:23:32;;;;;;;0.40;0.20;;;;;;;22.33;51.33;100732.47;5453776;26;20470;-50
2024/04/14 09:26:01;;;;;;;0.40;0.20;;;;;;;22.21;50.42;100737.94;5454240;26;20518;-50
2024/04/14 09:28:28;;;;;;;0.40;0.20;;;;;;;22.22;50.87;100737.81;5453988;26;20446;-49
2024/04/14 09:30:55;;;;;;;0.40;0.20;;;;;;;22.17;51.94;100738.13;5454267;26;20477;-50
2024/04/14 09:33:23;;;;;;;0.40;0.20;;;;;;;22.32;49.98;100743.44;5453923;26;20470;-50
2024/04/14 09:35:50;;;;;;;0.40;0.20;;;;;;;22.64;48.74;100738.47;5454254;26;20579;-50
2024/04/14 09:38:18;;;;;;;0.40;0.20;;;;;;;22.55;49.42;100739.97;5453635;26;20473;-50
2024/04/14 09:40:44;;;;;;;0.40;0.20;;;;;;;22.62;49.88;100735.00;5454073;26;20477;-50
2024/04/14 09:43:11;;;;;;;0.40;0.20;;;;;;;22.82;49.96;100737.13;5453589;26;21135;-49
2024/04/14 09:45:39;;;;;;;0.40;0.20;;;;;;;22.56;50.08;100739.00;5429956;26;20936;-49
2024/04/14 09:48:08;;;;;;;0.40;0.20;;;;;;;22.69;49.34;100741.69;5453996;26;21099;-49
2024/04/14 09:50:35;;;;;;;0.40;0.20;;;;;;;22.74;48.65;100742.22;5453822;26;20529;-48
2024/04/14 09:53:03;;;;;;;0.40;0.20;;;;;;;22.87;48.47;100737.69;5438056;26;20478;-47
2024/04/14 09:55:30;;;;;;;0.40;0.20;;;;;;;22.57;48.39;100738.00;5453578;26;20522;-47
2024/04/14 09:57:56;;;;;;;0.40;0.20;;;;;;;22.89;47.75;100735.75;5453494;26;20473;-48
2024/04/14 10:00:24;;;;;;;0.40;0.20;;;;;;;23.05;47.43;100730.94;5453601;26;20466;-47
2024/04/14 10:02:54;;;;;;;0.40;0.20;;;;;;;22.53;47.75;100731.09;5453674;26;20529;-48
2024/04/14 10:05:24;;;;;;;0.40;0.20;;;;;;;22.80;47.72;100730.09;5453338;26;21067;-47
2024/04/14 10:07:51;;;;;;;0.40;0.20;;;;;;;22.83;49.33;100729.88;5454024;26;20469;-47
2024/04/14 10:10:19;;;;;;;0.40;0.20;;;;;;;23.02;48.50;100724.84;5451453;26;20522;-48
2024/04/14 10:12:46;;;;;;;0.40;0.20;;;;;;;23.11;47.67;100732.31;5453379;26;20478;-48
2024/04/14 10:15:14;;;;;;;0.50;0.20;;;;;;;23.22;47.80;100721.53;5453369;26;20457;-50
2024/04/14 10:17:40;;;;;;;0.40;0.20;;;;;;;23.12;47.58;100720.47;5436865;26;21066;-50
2024/04/14 10:20:11;;;;;;;0.40;0.20;;;;;;;23.38;46.67;100717.69;5453500;26;20516;-50
2024/04/14 10:22:40;;;;;;;0.40;0.20;;;;;;;23.10;46.92;100714.31;5453134;26;20850;-49
2024/04/14 10:25:22;;;;;;;0.40;0.20;;;;;;;23.48;47.72;100707.88;5453155;26;20446;-49
2024/04/14 10:27:49;;;;;;;0.40;0.20;;;;;;;23.46;46.69;100707.13;5453033;26;20513;-49
2024/04/14 10:30:22;;;;;;;0.40;0.20;;;;;;;23.31;46.50;100703.72;5453086;26;20522;-50
2024/04/14 10:33:07;;;;;;;0.40;0.20;;;;;;;23.28;47.12;100699.38;5453014;26;20470;-47
2024/04/14 10:35:34;;;;;;;0.40;0.20;;;;;;;23.48;46.19;100700.59;5453223;26;20551;-47
2024/04/14 10:38:00;;;;;;;0.40;0.20;;;;;;;23.56;45.77;100697.28;5422125;26;20487;-48
2024/04/14 10:40:27;;;;;;;0.40;0.20;;;;;;;23.79;46.30;100693.72;5416467;26;20506;-49
2024/04/14 10:42:54;;;;;;;0.40;0.20;;;;;;;23.84;45.03;100685.19;5421592;26;20473;-50
2024/04/14 10:45:31;;;;;;;0.40;0.30;;;;;;;23.91;44.63;100695.47;5432192;26;20536;-49
2024/04/14 10:47:58;;;;;;;0.40;0.20;;;;;;;23.87;45.87;100695.84;5443744;26;20475;-49
2024/04/14 10:50:27;;;;;;;0.40;0.20;;;;;;;24.00;44.55;100693.03;5440865;26;20494;-50
2024/04/14 10:52:54;;;;;;;0.40;0.20;;;;;;;24.17;44.65;100698.00;5424573;26;20556;-47
2024/04/14 10:55:20;;;;;;;0.40;0.20;;;;;;;23.90;44.33;100685.59;5441250;26;20526;-51
2024/04/14 10:57:47;;;;;;;0.40;0.20;;;;;;;23.89;43.80;100688.44;5452999;26;20450;-49
2024/04/14 11:00:13;;;;;;;0.40;0.20;;;;;;;24.17;44.29;100681.72;5447027;26;21068;-49
2024/04/14 11:02:40;;;;;;;0.40;0.20;;;;;;;24.46;44.41;100682.13;5415376;26;20463;-49
2024/04/14 11:05:11;;;;;;;0.40;0.20;;;;;;;24.42;44.16;100680.66;5442001;26;20482;-49
2024/04/14 11:07:39;;;;;;;0.40;0.20;;;;;;;24.15;44.61;100672.81;5439465;26;20447;-49
2024/04/14 11:10:07;;;;;;;0.40;0.20;;;;;;;23.72;44.47;100668.03;5440012;26;20481;-49
2024/04/14 11:12:34;;;;;;;0.40;0.20;;;;;;;23.89;45.11;100667.56;5452304;26;20450;-50
2024/04/14 11:15:03;;;;;;;0.40;0.20;;;;;;;23.81;44.91;100670.00;5452318;26;20470;-47
2024/04/14 11:17:30;;;;;;;0.40;0.20;;;;;;;23.93;45.06;100668.19;5437304;26;20450;-47
2024/04/14 11:19:57;;;;;;;0.40;0.20;;;;;;;24.10;44.83;100654.13;5452366;26;20506;-47
2024/04/14 11:22:23;;;;;;;0.40;0.20;;;;;;;23.93;44.06;100657.34;5436723;26;20474;-47